Login
Access
Login with your mtb-forum.it nickname and password.


You do not have an account? Sign up here for free

Merckx

Last training unit 10/11/2018
2
Followers
46 466 Km
itineraries
473 401 m
of total vertical gain
1936
hours of riding
24.26 Km/h
average speed
119
average HR


10/11/2018 Show to everybody first sworks 81.75 Km 469 m 03:01:42 26.99 Km\h
04/11/2018 Show to everybody tramonte crocefisso 85 Km 486 m 03:15:46 26.05 Km\h
03/11/2018 Show to everybody argon18 87.19 Km 391 m 03:00:24 29 Km\h
27/10/2018 Show to everybody top rider 83.57 Km 602 m 03:04:51 27.13 Km\h
22/10/2018 Show to everybody scarico 42.86 Km 30 m 01:40:13 25.66 Km\h
21/10/2018 Show to everybody circuito dei fiori 72.46 Km 299 m 02:39:43 27.22 Km\h
20/10/2018 Show to everybody castelnuovo 85.45 Km 549 m 03:14:58 26.3 Km\h
11/10/2018 Show to everybody pontelongo 44.61 Km 42 m 01:30:49 29.47 Km\h
06/10/2018 Show to everybody no pioggia 59.88 Km 26 m 02:13:00 27.01 Km\h
05/10/2018 Show to everybody swiss air 53.37 Km 245 m 02:08:03 25.01 Km\h
30/09/2018 Show to everybody gemellaggio Stra alpe nino`s bike team 93.64 Km 268 m 03:30:27 26.7 Km\h
29/09/2018 Show to everybody zovencedo 109.32 Km 565 m 04:01:41 27.14 Km\h
23/09/2018 Show to everybody 101 84.03 Km 326 m 03:14:12 25.96 Km\h
22/09/2018 Show to everybody agugliaro 95.19 Km 285 m 03:16:14 29.1 Km\h
21/09/2018 Show to everybody relax 66.21 Km 419 m 02:56:27 22.52 Km\h
15/09/2018 Show to everybody con Endrio 76.55 Km 50 m 02:42:03 28.34 Km\h
09/09/2018 Show to everybody bike experience 77.63 Km 512 m 03:01:17 25.69 Km\h
08/09/2018 Show to everybody manghen e redebus 116.45 Km 2500 m 06:08:26 18.96 Km\h
05/09/2018 Show to everybody no previst 80.65 Km 726 m 03:11:03 25.33 Km\h
01/09/2018 Show to everybody bovolenta 27.2 Km 41 m 00:52:40 30.98 Km\h
25/08/2018 Show to everybody no rain 46.26 Km 201 m 01:46:32 26.05 Km\h
23/08/2018 Show to everybody roccolo 72.97 Km 391 m 03:00:22 24.27 Km\h
21/08/2018 Show to everybody berici foratura 107.67 Km 456 m 03:48:05 28.32 Km\h
19/08/2018 Show to everybody primo dopo sosta 82.98 Km 333 m 03:00:02 27.66 Km\h
17/08/2018 Show to everybody mtb rovigno 18.5 Km 87 m 01:25:57 12.91 Km\h
15/08/2018 Show to everybody mtb 32.88 Km 316 m 01:37:04 20.32 Km\h
12/08/2018 Show to everybody in mtb rovigno 13.56 Km 71 m 01:07:48 12 Km\h
07/08/2018 Show to everybody calaone turri 93.59 Km 546 m 03:35:53 26.01 Km\h
05/08/2018 Show to everybody fasolo 92.36 Km 625 m 03:30:16 26.35 Km\h
04/08/2018 Show to everybody cingolina 82.2 Km 564 m 03:02:36 27.01 Km\h
03/08/2018 Show to everybody bovolenta 27.53 Km 14 m 01:04:28 25.62 Km\h
29/07/2018 Show to everybody albettone 90.87 Km 620 m 03:30:45 25.87 Km\h
28/07/2018 Show to everybody vezzena 98.6 Km 1916 m 04:50:44 20.35 Km\h
22/07/2018 Show to everybody fiandre 91.24 Km 366 m 03:07:52 29.14 Km\h
21/07/2018 Show to everybody 3 cancell 96.25 Km 1110 m 04:08:49 23.21 Km\h
15/07/2018 Show to everybody 101 short 64.88 Km 384 m 02:35:22 25.06 Km\h
14/07/2018 Show to everybody grappa da caupo 116.89 Km 1986 m 05:32:19 21.1 Km\h
08/07/2018 Show to everybody bagnara teolo 82.23 Km 558 m 03:11:42 25.74 Km\h
07/07/2018 Show to everybody m.te berico 122.86 Km 628 m 04:29:42 27.33 Km\h
01/07/2018 Show to everybody baone biscie 81.54 Km 356 m 02:55:31 27.87 Km\h
30/06/2018 Show to everybody acque 132.99 Km 693 m 04:40:58 28.4 Km\h
29/06/2018 Show to everybody fossaragna 44.84 Km 75 m 01:44:21 25.78 Km\h
24/06/2018 Show to everybody speed 89.77 Km 374 m 03:12:05 28.04 Km\h
23/06/2018 Show to everybody race san pietro 73.89 Km 666 m 02:52:04 25.76 Km\h
16/06/2018 Show to everybody fero de cavaeo 108.79 Km 1070 m 04:33:51 23.84 Km\h
15/06/2018 Show to everybody soft trial 67.01 Km 378 m 03:01:35 22.14 Km\h
10/06/2018 Show to everybody Bastia Bagnara 76.32 Km 438 m 02:57:25 25.81 Km\h
09/06/2018 Show to everybody rubbio mte corno 116.09 Km 2320 m 06:02:54 19.19 Km\h
03/06/2018 Show to everybody teolo 55.25 Km 224 m 02:02:26 27.07 Km\h
02/06/2018 Show to everybody toara brendola 114.33 Km 622 m 04:02:55 28.24 Km\h
01/06/2018 Show to everybody mattutino 54.82 Km 453 m 02:10:41 25.17 Km\h
30/05/2018 Show to everybody soft 17.08 Km 24 m 00:47:57 21.37 Km\h
29/05/2018 Show to everybody serale 27.07 Km 56 m 00:55:53 29.06 Km\h
27/05/2018 Show to everybody cingolina 91.94 Km 761 m 03:32:14 25.99 Km\h
26/05/2018 Show to everybody pianezze 97.68 Km 473 m 03:44:53 26.06 Km\h
19/05/2018 Show to everybody ritorno zoncolan 8.86 Km 261 m 00:28:49 18.44 Km\h
19/05/2018 Show to everybody zoncolan 43.51 Km 1419 m 02:41:20 16.18 Km\h
12/05/2018 Show to everybody berici 102.68 Km 552 m 03:34:02 28.78 Km\h
10/05/2018 Show to everybody garda 176.31 Km 1268 m 06:17:52 28 Km\h
06/05/2018 Show to everybody giro tranqui 76.14 Km 333 m 03:03:23 24.91 Km\h
05/05/2018 Show to everybody vidor 73.33 Km 1000 m 02:59:04 24.57 Km\h
04/05/2018 Show to everybody no rain 27.47 Km 40 m 00:57:58 28.43 Km\h
02/05/2018 Show to everybody test 8.73 Km 13 m 00:27:30 19.06 Km\h
01/05/2018 Show to everybody sassonero arquà 83.92 Km 700 m 03:06:04 27.06 Km\h
29/04/2018 Show to everybody 101 80.96 Km 602 m 03:00:56 26.85 Km\h
28/04/2018 Show to everybody villa balzana 101.19 Km 752 m 03:54:10 25.93 Km\h
27/04/2018 Show to everybody soft 36.84 Km 47 m 01:26:49 25.46 Km\h
25/04/2018 Show to everybody beatrice d`este 98.41 Km 891 m 03:41:49 26.62 Km\h
24/04/2018 Show to everybody incontro Piero 28.68 Km 38 m 01:07:22 25.54 Km\h
21/04/2018 Show to everybody psso del vento 88.25 Km 732 m 03:24:53 25.84 Km\h
19/04/2018 Show to everybody turri 66.73 Km 614 m 02:39:05 25.17 Km\h
17/04/2018 Show to everybody cemento torreglia 53.19 Km 377 m 02:08:40 24.8 Km\h
15/04/2018 Show to everybody apertura società stra alpe 2018 62.7 Km 143 m 02:56:46 21.28 Km\h
14/04/2018 Show to everybody toara 99.08 Km 539 m 03:36:25 27.47 Km\h
08/04/2018 Show to everybody albettone 85.71 Km 644 m 03:14:21 26.46 Km\h
07/04/2018 Show to everybody berici top lapio 98.99 Km 635 m 03:37:50 27.27 Km\h
02/04/2018 Show to everybody pasquetta 84.73 Km 566 m 03:22:22 25.12 Km\h
25/03/2018 Show to everybody giro small 50.59 Km 129 m 01:58:03 25.71 Km\h
24/03/2018 Show to everybody bericetti 102.32 Km 467 m 03:45:09 27.27 Km\h
22/03/2018 Show to everybody giro di primavera?!?! 40.84 Km 36 m 01:29:50 27.27 Km\h
18/03/2018 Show to everybody giro vento 18 mar 71.77 Km 180 m 02:42:30 26.5 Km\h
16/03/2018 Show to everybody giro ven 16 marzo 65.39 Km 438 m 02:50:26 23.02 Km\h
10/03/2018 Show to everybody sabato 10 marzo 70.51 Km 647 m 03:03:02 23.11 Km\h
04/03/2018 Show to everybody Bovolenta 27.38 Km 27 m 01:02:17 26.38 Km\h
24/02/2018 Show to everybody fusina AeR 72.07 Km 72 m 02:29:47 28.87 Km\h
17/02/2018 Show to everybody giro 17 febb 18 73.94 Km 224 m 03:00:26 24.59 Km\h
10/02/2018 Show to everybody giro 10feb 2018 59.67 Km 366 m 02:33:07 23.38 Km\h
23/12/2017 Show to everybody giro_all_ora_di_pranzo_n_dai_via_come_i_reattori_ 85.37 Km 558 m 03:12:02 26.67 Km\h
16/12/2017 Show to everybody giro_pomeridiano_pochi_ma_boni_ 56.28 Km 380 m 02:06:45 26.64 Km\h
09/12/2017 Show to everybody giro_all_ora_di_pranzo_in_fuga_con_ste_f10 83.44 Km 581 m 03:03:45 27.25 Km\h
03/12/2017 Show to everybody giro_mattutino_con_aiutino_di_checco_bmc 74.22 Km 425 m 02:48:32 26.42 Km\h
02/12/2017 Show to everybody giro_mattutino_con_sidiata_dietro_arru_ 88.74 Km 555 m 03:21:31 26.42 Km\h
25/11/2017 Show to everybody giro_mattutino_alternativo_a_tutta_con_arru 88.33 Km 88 m 03:06:17 28.45 Km\h
19/11/2017 Show to everybody giro_mattutino_albettone 86.57 Km 407 m 03:11:09 27.17 Km\h
18/11/2017 Show to everybody giro_mattutino_finalmente_soleeee_ 78.93 Km 656 m 03:00:37 26.22 Km\h
12/11/2017 Show to everybody giro_mattutino_with_fog_ 77.3 Km 748 m 03:03:20 25.3 Km\h
05/11/2017 Show to everybody giro_mattutino_no_rain 70.79 Km 696 m 02:45:01 25.74 Km\h
04/11/2017 Show to everybody giro_mattutino_con_test_bike_bmc 98.39 Km 952 m 03:57:33 24.85 Km\h
01/11/2017 Show to everybody giro_mattutino 75.35 Km 497 m 02:43:16 27.69 Km\h
29/10/2017 Show to everybody giro_mattutino_101 75.35 Km 592 m 02:57:53 25.42 Km\h
28/10/2017 Show to everybody giro_mattutino_primo_freskino_d_autunno 92.82 Km 924 m 03:46:30 24.59 Km\h
21/10/2017 Show to everybody giro_mattutino_military_street 113.33 Km 750 m 03:55:25 28.88 Km\h
14/10/2017 Show to everybody giro_mattutino_lago_di_gardaaaa_errore_app_reali_650_mt_dsl 146.07 Km 2275 m 04:36:17 31.72 Km\h
30/09/2017 Show to everybody giro_mattutino_con_festino_ 108.62 Km 898 m 03:53:36 27.9 Km\h
23/09/2017 Show to everybody giro_mattutino_tosto_ 85.18 Km 812 m 03:15:37 26.13 Km\h
20/09/2017 Show to everybody giro_serale 17.32 Km 24 m 00:43:24 23.94 Km\h
17/09/2017 Show to everybody giro_mattutino_ 85.03 Km 642 m 03:11:29 26.64 Km\h
09/09/2017 Show to everybody giro_mattutino_enego_no_rain_ 127.8 Km 2589 m 05:39:57 22.56 Km\h
03/09/2017 Show to everybody giro_mattutino_rain_no_sun 65.78 Km 565 m 02:40:46 24.55 Km\h
02/09/2017 Show to everybody giro_mattutino_no_rain_ 97.17 Km 844 m 03:32:24 27.45 Km\h
27/08/2017 Show to everybody giro_mattutino_light 65.41 Km 597 m 02:42:27 24.16 Km\h
26/08/2017 Show to everybody giro_mattutino_toara_sc_batt_reali_km123 117.82 Km 1057 m 04:23:04 26.87 Km\h
24/08/2017 Show to everybody giro_pomeridiano_auu_coyote_ 50.74 Km 304 m 02:04:30 24.45 Km\h
20/08/2017 Show to everybody giro_mattutino_fresh_ 90.03 Km 736 m 03:15:17 27.66 Km\h
19/08/2017 Show to everybody giro_mattutino_nebuloso_ 91.28 Km 1171 m 03:40:29 24.84 Km\h
12/08/2017 Show to everybody giro_mattutino_che_fresco_ 90.93 Km 851 m 03:27:10 26.33 Km\h
09/08/2017 Show to everybody giro_mattutino 76.59 Km 930 m 03:10:49 24.08 Km\h
06/08/2017 Show to everybody giro_mattutino_speak_english 79.34 Km 984 m 03:15:29 24.35 Km\h
05/08/2017 Show to everybody giro_mattutino_accalorato_e_forato_ 87.51 Km 854 m 03:23:17 25.83 Km\h
23/07/2017 Show to everybody giro_mattutino_calor_rrrr 95.02 Km 879 m 03:29:55 27.16 Km\h
22/07/2017 Show to everybody giro_mattutino_pochi_ma_boni_ 77.62 Km 632 m 03:06:03 25.03 Km\h
16/07/2017 Show to everybody giro_mattutino_fiandre 90.02 Km 689 m 03:14:06 27.83 Km\h
15/07/2017 Show to everybody giro_mattutino_2_cancelli 77.65 Km 1033 m 03:19:18 23.38 Km\h
09/07/2017 Show to everybody giro_mattutino_che_doloriii 97.06 Km 836 m 03:37:43 26.75 Km\h
08/07/2017 Show to everybody giro_mattutino_con_forat 89.24 Km 1146 m 03:37:29 24.62 Km\h
01/07/2017 Show to everybody 01-07-2017 07.21 75.51 Km 799 m 03:08:42 24.01 Km\h
24/06/2017 Show to everybody 24-06-2017 07.34 85.38 Km 615 m 03:20:50 25.51 Km\h
10/06/2017 Show to everybody 10-06-2017 07.34 110.23 Km 853 m 04:15:47 25.86 Km\h
04/06/2017 Show to everybody 04-06-2017 07.30 71.92 Km 842 m 02:58:47 24.14 Km\h
02/06/2017 Show to everybody 02-06-2017 07.33 91.56 Km 802 m 03:34:29 25.61 Km\h
27/05/2017 Show to everybody 27-05-2017 08.12 80.26 Km 1490 m 04:11:49 19.12 Km\h
27/05/2017 Show to everybody 27-05-2017 17.13 24.03 Km 91 m 00:57:21 25.14 Km\h
21/05/2017 Show to everybody 21-05-2017 07.27 72.63 Km 763 m 03:15:10 22.33 Km\h
13/05/2017 Show to everybody 13-05-2017 08.28 71.24 Km 1878 m 03:57:05 18.03 Km\h
06/05/2017 Show to everybody 06-05-2017 07.34 89.27 Km 883 m 03:31:31 25.32 Km\h
01/05/2017 Show to everybody 01-05-2017 07.30 107.25 Km 982 m 04:31:02 23.74 Km\h
30/04/2017 Show to everybody 30-04-2017 07.53 76.2 Km 859 m 03:29:02 21.87 Km\h
29/04/2017 Show to everybody 29-04-2017 07.52 87.51 Km 958 m 03:29:25 25.07 Km\h
25/04/2017 Show to everybody 25-04-2017 07.58 85.45 Km 330 m 03:25:29 24.95 Km\h
23/04/2017 Show to everybody 23-04-2017 07.54 76.64 Km 773 m 03:12:57 23.83 Km\h
22/04/2017 Show to everybody 22-04-2017 07.58 4.3 Km 20 m 00:10:58 23.54 Km\h
22/04/2017 Show to everybody 22-04-2017 08.44 94.14 Km 875 m 03:41:00 25.56 Km\h
17/04/2017 Show to everybody 17-04-2017 08.05 84.93 Km 708 m 03:26:33 24.67 Km\h
14/04/2017 Show to everybody 14-04-2017 14.06 53.77 Km 565 m 02:31:34 21.28 Km\h
08/04/2017 Show to everybody 08-04-2017 08.17 85.45 Km 1430 m 03:54:43 21.84 Km\h
02/04/2017 Show to everybody 02-04-2017 08.01 65.26 Km 560 m 02:44:00 23.88 Km\h
01/04/2017 Show to everybody 01-04-2017 08.02 103.6 Km 889 m 04:04:11 25.46 Km\h
25/03/2017 Show to everybody giro_mattutino_25_marzo 110.91 Km 919 m 04:14:03 26.19 Km\h
19/03/2017 Show to everybody giro_mattutino_19_mar 94.97 Km 886 m 03:49:12 24.86 Km\h
18/03/2017 Show to everybody giro_mattutino18mar 143.66 Km 647 m 05:00:46 28.66 Km\h
12/03/2017 Show to everybody giro_mattutino_12mar 75.72 Km 883 m 03:06:50 24.32 Km\h
11/03/2017 Show to everybody giro_mattutino_11mar 102.64 Km 542 m 03:35:27 28.58 Km\h
26/02/2017 Show to everybody giro_mattutino_26_feb 78.08 Km 893 m 03:21:36 23.24 Km\h
25/02/2017 Show to everybody giro_mattutino_25_feb 75.79 Km 881 m 03:17:08 23.07 Km\h
19/02/2017 Show to everybody giro_mattutino_19_feb 71.66 Km 486 m 02:42:55 26.39 Km\h
18/02/2017 Show to everybody Allenamento 18-02-2017 alle 07:09:25 72.18 Km 993 m 03:21:31 21.49 Km\h
29/01/2017 Show to everybody giro_mattutino_29_gen 80.81 Km 766 m 03:37:21 22.31 Km\h
28/01/2017 Show to everybody giro_mattutino_28_dic 85.17 Km 707 m 03:20:43 25.46 Km\h
22/01/2017 Show to everybody giro_mattutino_batt_sc_reali_82km 69.51 Km 711 m 02:55:33 23.76 Km\h
21/01/2017 Show to everybody giro_mattutino_21_dic 86.17 Km 790 m 03:23:54 25.36 Km\h
15/01/2017 Show to everybody giro_mattutino 15 gen 71.03 Km 577 m 02:54:14 24.46 Km\h
28/12/2016 Show to everybody giro_pomeridiano_28_dic 79.69 Km 408 m 02:49:25 28.22 Km\h
26/12/2016 Show to everybody giro_mattutino_un_centone_x_s_stefano 100.79 Km 300 m 03:35:40 28.04 Km\h
24/12/2016 Show to everybody giro_mattutino_24_dic_con_sosta_compleanno_natalino 97.01 Km 761 m 03:42:23 26.17 Km\h
21/12/2016 Show to everybody giro_pomeridiano_21_dic 59.51 Km 402 m 02:06:20 28.27 Km\h
17/12/2016 Show to everybody giro_mattutino_17_dic 89.35 Km 621 m 03:23:15 26.38 Km\h
11/12/2016 Show to everybody giro_mattutino 11 dic 81.25 Km 662 m 03:13:29 25.2 Km\h
04/12/2016 Show to everybody giro_mattutino_4_dic 82.07 Km 776 m 03:16:25 25.07 Km\h
03/12/2016 Show to everybody giro_mattutino_con_forat_pit_stop_ivo_top_ 73.83 Km 219 m 02:38:03 28.03 Km\h
02/12/2016 Show to everybody giro_pomeridiano 48.14 Km 101 m 01:45:56 27.27 Km\h
27/11/2016 Show to everybody giro_mattutino 90.5 Km 991 m 03:29:57 25.86 Km\h
26/11/2016 Show to everybody giro_pomeridiano 58.53 Km 234 m 02:08:50 27.26 Km\h
20/11/2016 Show to everybody giro_sc_batt_reali_101_km_con_forat_ 87.16 Km 659 m 03:11:11 27.36 Km\h
13/11/2016 Show to everybody giro_mattutino 83.78 Km 471 m 03:05:09 27.15 Km\h
12/11/2016 Show to everybody giro_mattutino 99.53 Km 444 m 03:37:58 27.4 Km\h
07/11/2016 Show to everybody 07_11_2016 14.02 36.9 Km 85 m 01:26:31 25.59 Km\h
04/11/2016 Show to everybody 04_11_2016 13.56 26.55 Km 59 m 00:59:45 26.66 Km\h
01/11/2016 Show to everybody 01_11_2016 07.54 86.51 Km 669 m 03:21:14 25.79 Km\h
30/10/2016 Show to everybody 30_10_2016 06.52 70.48 Km 755 m 03:16:03 21.57 Km\h
29/10/2016 Show to everybody 29_10_2016 07.55 102 Km 1031 m 04:01:24 25.35 Km\h
28/10/2016 Show to everybody 28_10_2016 14.50 40.4 Km 66 m 01:36:34 25.1 Km\h
23/10/2016 Show to everybody 23_10_2016 08.04 67.61 Km 648 m 02:48:44 24.04 Km\h
22/10/2016 Show to everybody 22_10_2016 08.18 86.65 Km 1028 m 03:28:44 24.91 Km\h
16/10/2016 Show to everybody 16_10_2016 08.20 73.98 Km 831 m 03:10:31 23.3 Km\h
08/10/2016 Show to everybody 08_10_2016 08.11 81.16 Km 641 m 03:09:28 25.7 Km\h
01/10/2016 Show to everybody 01_10_2016 08.06 94.19 Km 918 m 03:53:19 24.22 Km\h
25/09/2016 Show to everybody 25_09_2016 07.39 78.16 Km 1066 m 03:40:06 21.31 Km\h
24/09/2016 Show to everybody 24_09_2016 07.42 79.78 Km 886 m 03:35:36 22.2 Km\h
17/09/2016 Show to everybody 17_09_2016 10.41 51.92 Km 415 m 01:59:22 26.1 Km\h
11/09/2016 Show to everybody 11_09_2016 07.46 77.46 Km 910 m 03:27:52 22.36 Km\h
10/09/2016 Show to everybody 10_09_2016 07.40 90.22 Km 776 m 03:43:40 24.2 Km\h
04/09/2016 Show to everybody 04_09_2016 07.43 86.36 Km 835 m 03:35:51 24.01 Km\h
03/09/2016 Show to everybody 03_09_2016 07.44 86.1 Km 940 m 03:44:10 23.05 Km\h
28/08/2016 Show to everybody 28_08_2016 07.46 77.94 Km 925 m 03:52:03 20.15 Km\h
27/08/2016 Show to everybody 27_08_2016 07.48 103.47 Km 914 m 04:16:48 24.18 Km\h
26/08/2016 Show to everybody 26_08_2016 09.20 54.4 Km 392 m 02:24:14 22.63 Km\h
20/08/2016 Show to everybody 20_08_2016 09.01 100.42 Km 1523 m 04:06:21 24.46 Km\h
14/08/2016 Show to everybody 14_08_2016 07.34 84.47 Km 831 m 03:48:43 22.16 Km\h
13/08/2016 Show to everybody 13_08_2016 07.39 94.05 Km 731 m 03:56:19 23.88 Km\h
31/07/2016 Show to everybody 31_07_2016 07.41 71.93 Km 674 m 03:03:44 23.49 Km\h
30/07/2016 Show to everybody 30_07_2016 07.38 104.66 Km 1040 m 04:15:16 24.6 Km\h
24/07/2016 Show to everybody 24_07_2016 07.40 26.81 Km 149 m 01:07:54 23.69 Km\h
16/07/2016 Show to everybody 16_07_2016 08.17 135.91 Km 2369 m 06:39:44 20.4 Km\h
09/07/2016 Show to everybody 09_07_2016 07.44 107.54 Km 966 m 04:18:13 24.99 Km\h
02/07/2016 Show to everybody 02_07_2016 07.32 105.54 Km 1040 m 04:27:55 23.64 Km\h
26/06/2016 Show to everybody 26_06_2016 07.56 35.8 Km 85 m 01:18:55 27.22 Km\h
25/06/2016 Show to everybody 25_06_2016 07.31 77.54 Km 989 m 03:22:29 22.98 Km\h
19/06/2016 Show to everybody 19_06_2016 07.35 57.84 Km 269 m 02:12:47 26.14 Km\h
12/06/2016 Show to everybody 12_06_2016 07.36 82.92 Km 1145 m 03:56:48 21.01 Km\h
11/06/2016 Show to everybody 11_06_2016 07.32 91.53 Km 1055 m 04:02:23 22.66 Km\h
05/06/2016 Show to everybody 05_06_2016 07.41 30.18 Km 200 m 01:24:16 21.49 Km\h
04/06/2016 Show to everybody 04_06_2016 07.35 75.1 Km 720 m 03:08:26 23.91 Km\h
02/06/2016 Show to everybody 02_06_2016 07.32 74.29 Km 717 m 03:15:22 22.82 Km\h
28/05/2016 Show to everybody 28_05_2016 07.31 117.85 Km 998 m 04:45:59 24.72 Km\h
22/05/2016 Show to everybody 22_05_2016 07.34 88.89 Km 780 m 03:45:17 23.67 Km\h
15/05/2016 Show to everybody 15_05_2016 07.34 95.55 Km 1170 m 03:53:18 24.57 Km\h
14/05/2016 Show to everybody 14-05-2016 07.33 76.52 Km 1082 m 03:11:26 23.98 Km\h
08/05/2016 Show to everybody 08_05_2016 07.37 79.04 Km 706 m 02:52:47 27.45 Km\h
07/05/2016 Show to everybody 07_05_2016 07.32 75.12 Km 951 m 03:28:19 21.64 Km\h
30/04/2016 Show to everybody 30_04_2016 07.34 99.57 Km 1022 m 04:08:57 24 Km\h
25/04/2016 Show to everybody 25_04_2016 07.30 72.31 Km 680 m 03:11:51 22.61 Km\h
22/04/2016 Show to everybody 22_04_2016 14.13 29.75 Km 112 m 01:11:33 24.94 Km\h
17/04/2016 Show to everybody 17_04_2016 07.36 84.23 Km 794 m 03:28:01 24.29 Km\h
16/04/2016 Show to everybody 16_04_2016 08.30 61.93 Km 503 m 02:42:48 22.83 Km\h
10/04/2016 Show to everybody 10_04_2016 07.50 75.7 Km 486 m 04:26:46 17.03 Km\h
10/04/2016 Show to everybody 10_04_2016 07.50 75.7 Km 486 m 04:26:46 17.03 Km\h
03/04/2016 Show to everybody 03_04_2016 07.33 65.26 Km 570 m 03:06:24 21.01 Km\h
02/04/2016 Show to everybody 02_04_2016 09.03 57.29 Km 399 m 02:28:04 23.21 Km\h
28/03/2016 Show to everybody 28_03_2016 10.20 18.16 Km 57 m 00:48:38 22.4 Km\h
26/03/2016 Show to everybody 26_03_2016 08.06 65.51 Km 513 m 02:53:38 22.64 Km\h
25/03/2016 Show to everybody 25_03_2016 15.22 16.31 Km 75 m 00:53:07 18.42 Km\h
13/03/2016 Show to everybody 13_03_2016 08.05 66.2 Km 522 m 02:43:18 24.32 Km\h
12/03/2016 Show to everybody 12_03_2016 08.35 56.03 Km 429 m 02:22:28 23.6 Km\h
21/02/2016 Show to everybody 21_02_2016 10.21 27.53 Km 64 m 01:02:56 26.25 Km\h
20/02/2016 Show to everybody 20_02_2016 14.23 27.97 Km 105 m 01:16:56 21.81 Km\h
25/10/2015 Show to everybody 25_10_2015 08.00 66.04 Km 612 m 02:57:52 22.28 Km\h
24/10/2015 Show to everybody 24_10_2015 07.56 84.88 Km 861 m 03:51:07 22.04 Km\h
18/10/2015 Show to everybody 18_10_2015 08.00 84.53 Km 1043 m 04:03:21 20.84 Km\h
17/10/2015 Show to everybody 17_10_2015 07.50 81.84 Km 618 m 03:13:18 25.4 Km\h
10/10/2015 Show to everybody 10.10.2015 07.50 82.7 Km 1137 m 03:39:16 22.63 Km\h
03/10/2015 Show to everybody 03.10.2015 14.00 58.45 Km 1046 m 02:22:47 24.56 Km\h
27/09/2015 Show to everybody 27.09.2015 07.31 77.36 Km 1023 m 03:28:16 22.29 Km\h
26/09/2015 Show to everybody 26.09.2015 07.33 100.34 Km 1067 m 04:08:06 24.27 Km\h
20/09/2015 Show to everybody 20.09.2015 07.37 79.45 Km 984 m 04:04:14 19.52 Km\h
19/09/2015 Show to everybody 19.09.2015 07.27 87.14 Km 1189 m 03:50:35 22.67 Km\h
12/09/2015 Show to everybody 12.09.2015 07.32 67.61 Km 1221 m 03:27:37 19.54 Km\h
06/09/2015 Show to everybody 06.09.2015 07.34 89.74 Km 1280 m 03:56:20 22.78 Km\h
30/08/2015 Show to everybody 30.08.2015 07.29 86.03 Km 1320 m 03:28:34 24.75 Km\h
29/08/2015 Show to everybody 29.08.2015 07.28 91.55 Km 1520 m 03:44:06 24.51 Km\h
26/08/2015 Show to everybody 26.08.2015 07.41 97.19 Km 1177 m 03:47:53 25.59 Km\h
22/08/2015 Show to everybody 22.08.2015 07.33 97.6 Km 1893 m 04:08:04 23.61 Km\h
20/08/2015 Show to everybody 20.08.2015 08.21 72.21 Km 2308 m 04:48:31 15.02 Km\h
18/08/2015 Show to everybody 18.08.2015 15.11 50.63 Km 409 m 02:10:55 23.21 Km\h
14/08/2015 Show to everybody 14.08.2015 09.57 37.73 Km 322 m 02:00:23 18.81 Km\h
13/08/2015 Show to everybody 13.08.2015 09_37 55.07 Km 365 m 03:02:54 18.07 Km\h
12/08/2015 Show to everybody 12.08.2015 09.30 53.34 Km 242 m 02:31:32 21.12 Km\h
11/08/2015 Show to everybody 11.08.2015 10.15 35.38 Km 202 m 01:41:50 20.85 Km\h
08/08/2015 Show to everybody 08.08.2015 10.53 45.5 Km 229 m 02:15:54 20.09 Km\h
04/08/2015 Show to everybody 04.08.2015 08.52 89.6 Km 2025 m 05:23:32 16.62 Km\h
02/08/2015 Show to everybody 02.08.2015 07.35 87.36 Km 933 m 03:38:49 23.95 Km\h
01/08/2015 Show to everybody 01.08.2015 07.28 87.59 Km 994 m 03:58:14 22.06 Km\h
25/07/2015 Show to everybody 25.07.2015 07.32 76.37 Km 843 m 03:27:23 22.09 Km\h
19/07/2015 Show to everybody 19.07.2015 07.29 86.68 Km 2136 m 03:40:41 23.57 Km\h
19/07/2015 Show to everybody 19.07.2015 07.29 86.68 Km 2136 m 03:40:41 23.57 Km\h
18/07/2015 Show to everybody 18.07.2015 07.29 77.46 Km 1154 m 03:16:12 23.69 Km\h
12/07/2015 Show to everybody 12.07.2015 07.29 44.79 Km 209 m 01:48:17 24.82 Km\h
11/07/2015 Show to everybody 11.07.2015 07.30 89.37 Km 1436 m 04:10:43 21.39 Km\h
11/04/2015 Show to everybody 11.04.2015 07.50 96.57 Km 911 m 03:49:26 25.25 Km\h
06/04/2015 Show to everybody 06.04.2015 07.50 97.95 Km 971 m 03:50:11 25.53 Km\h
03/04/2015 Show to everybody 03.04.2015 08.44 85.57 Km 701 m 03:41:23 23.19 Km\h
02/04/2015 Show to everybody 02.04.2015 15.26 50.42 Km 380 m 01:58:31 25.53 Km\h
29/03/2015 Show to everybody 29.03.2015 07.47 76.21 Km 839 m 03:15:55 23.34 Km\h
28/03/2015 Show to everybody 28.03.2015 07.52 74.07 Km 921 m 03:17:19 22.52 Km\h
21/03/2015 Show to everybody 21.03.2015 07.54 82.4 Km 1056 m 03:54:19 21.1 Km\h
15/03/2015 Show to everybody 15.03.2015 07.53 76.4 Km 950 m 03:25:10 22.34 Km\h
14/03/2015 Show to everybody 14.03.2015 07.50 96.08 Km 991 m 03:56:13 24.4 Km\h
13/03/2015 Show to everybody 13.03.2015 14.20 28.08 Km 83 m 01:12:23 23.28 Km\h
08/03/2015 Show to everybody 08.03.2015 07.49 87.1 Km 1137 m 03:51:19 22.59 Km\h
07/03/2015 Show to everybody 07.03.2015 07.48 73.58 Km 776 m 03:14:29 22.7 Km\h
01/03/2015 Show to everybody 01.03.2015 08.13 69.56 Km 746 m 02:57:51 23.47 Km\h
28/02/2015 Show to everybody 28.02.2015 07.58 100.22 Km 1078 m 04:05:49 24.46 Km\h
23/02/2015 Show to everybody 23.02.2015 14.03 27.04 Km 126 m 01:05:48 24.66 Km\h
21/02/2015 Show to everybody 21.02.2015 08.11 67.24 Km 718 m 03:03:19 22.01 Km\h
15/02/2015 Show to everybody 15.02.2015 08.33 66.85 Km 483 m 02:50:13 23.56 Km\h
14/02/2015 Show to everybody 14.02.2015 08.23 84.21 Km 873 m 03:27:36 24.34 Km\h
13/02/2015 Show to everybody 13.02.2015 14.26 40.94 Km 89 m 01:35:41 25.67 Km\h
08/02/2015 Show to everybody 08.02.2015 08.15 81.93 Km 340 m 03:22:06 24.32 Km\h
01/02/2015 Show to everybody 01.02.2015 15.15 26.65 Km 90 m 01:03:22 25.24 Km\h
31/01/2015 Show to everybody 31.01.2015 08.32 65.16 Km 684 m 02:47:00 23.41 Km\h
25/01/2015 Show to everybody 25.01.2015 08.22 67.94 Km 658 m 02:53:29 23.5 Km\h
24/01/2015 Show to everybody 24.01.2015 08.16 84.34 Km 925 m 03:43:25 22.65 Km\h
18/01/2015 Show to everybody 18.01.2015 08.26 80.18 Km 681 m 03:29:59 22.91 Km\h
11/01/2015 Show to everybody 11.01.2015 10.42 31.65 Km 187 m 01:21:15 23.37 Km\h
10/01/2015 Show to everybody 10.01.2015 08.31 81.17 Km 800 m 03:15:22 24.93 Km\h
06/01/2015 Show to everybody 06.01.2015 08.27 59.65 Km 486 m 02:45:45 21.59 Km\h
04/01/2015 Show to everybody 04.01.2015 08.25 77.63 Km 847 m 03:22:10 23.04 Km\h
26/12/2014 Show to everybody 26.12.2014 08.30 64.33 Km 651 m 02:58:36 21.61 Km\h
24/12/2014 Show to everybody 24.12.2014 10.08 52.73 Km 443 m 02:09:29 24.43 Km\h
20/12/2014 Show to everybody 20.12.2014 08.15 69.5 Km 347 m 02:55:26 23.77 Km\h
14/12/2014 Show to everybody 14.12.2014 14.37 26.14 Km 77 m 01:04:00 24.51 Km\h
13/12/2014 Show to everybody 13.12.2014 08.13 67.96 Km 524 m 02:52:26 23.65 Km\h
08/12/2014 Show to everybody 08.12.2014 08.23 65.75 Km 663 m 02:58:46 22.07 Km\h
06/12/2014 Show to everybody 06.12.2014 08.17 77.01 Km 900 m 03:20:28 23.05 Km\h
30/11/2014 Show to everybody 30.11.2014 09.03 66.93 Km 558 m 02:32:11 26.39 Km\h
29/11/2014 Show to everybody 29.11.2014 08.09 72.87 Km 772 m 03:23:59 21.43 Km\h
22/11/2014 Show to everybody 22.11.2014 08.25 81.21 Km 908 m 03:15:36 24.91 Km\h
19/11/2014 Show to everybody 19.11.2014 10.54 27.52 Km 74 m 01:03:06 26.17 Km\h
16/11/2014 Show to everybody 16.11.2014 08.28 78.06 Km 788 m 03:21:08 23.29 Km\h
15/11/2014 Show to everybody 15.11.2014 08.27 32.56 Km 206 m 01:22:41 23.63 Km\h
14/11/2014 Show to everybody 14.11.2014 13.48 52.39 Km 362 m 02:00:42 26.04 Km\h
09/11/2014 Show to everybody 09.11.2014 15.27 27.3 Km 48 m 01:01:03 26.83 Km\h
02/11/2014 Show to everybody 02.11.2014 08.30 71.21 Km 727 m 03:08:58 22.61 Km\h
01/11/2014 Show to everybody colli 1nov2014 86.08 Km 868 m 03:36:03 23.91 Km\h
26/10/2014 Show to everybody 26.10.2014 07.59 74.89 Km 918 m 03:29:38 21.43 Km\h
25/10/2014 Show to everybody 25.10.2014 08.00 81.52 Km 715 m 03:18:32 24.64 Km\h
19/10/2014 Show to everybody 19.10.2014 07.58 78.57 Km 919 m 03:21:58 23.34 Km\h
18/10/2014 Show to everybody 18.10.2014 07.47 77.45 Km 842 m 03:28:52 22.25 Km\h
17/10/2014 Show to everybody 17.10.2014 15.26 41.95 Km 149 m 01:45:30 23.86 Km\h
11/10/2014 Show to everybody 11.10.2014 08.01 84.91 Km 671 m 03:17:28 25.8 Km\h
05/10/2014 Show to everybody colli1 50tt2014 17.85 Km 161 m 00:54:02 19.82 Km\h
05/10/2014 Show to everybody colli2 5ott2014 38.5 Km 490 m 01:48:09 21.36 Km\h
04/10/2014 Show to everybody colli 4ott2014 92.65 Km 1094 m 04:06:26 22.56 Km\h
27/09/2014 Show to everybody villa santina 27set2014 95.32 Km 1170 m 04:53:39 19.48 Km\h
21/09/2014 Show to everybody colli 21set2014 96.45 Km 785 m 03:41:48 26.09 Km\h
17/09/2014 Show to everybody giretto colli 17set2014 53 Km 462 m 02:25:06 21.92 Km\h
14/09/2014 Show to everybody colli 14sett2014 91.19 Km 1212 m 03:52:12 23.56 Km\h
13/09/2014 Show to everybody colli 13set2014 87.63 Km 1109 m 03:37:09 24.21 Km\h
10/09/2014 Show to everybody giretto 10sett2014 34.56 Km 138 m 01:26:54 23.86 Km\h
07/09/2014 Show to everybody colli 7sett2014 87.13 Km 1056 m 03:59:56 21.79 Km\h
06/09/2014 Show to everybody colli 6sett2014 87.06 Km 711 m 03:31:12 24.73 Km\h
31/08/2014 Show to everybody colli 31ago2014 79.16 Km 1000 m 03:36:22 21.95 Km\h
30/08/2014 Show to everybody colli 30ago2014 93.59 Km 1546 m 04:18:15 21.74 Km\h
30/08/2014 Show to everybody mtb 30ago2014 14.96 Km 190 m 00:50:36 17.74 Km\h
29/08/2014 Show to everybody giretto 29ago2014 23.19 Km 85 m 01:01:31 22.61 Km\h
28/08/2014 Show to everybody bovolenta 28ago2014 40.69 Km 190 m 01:44:33 23.35 Km\h
24/08/2014 Show to everybody colli 24ago2014 80.35 Km 965 m 03:25:04 23.51 Km\h
22/08/2014 Show to everybody colli 22ago2014 68.31 Km 657 m 03:00:48 22.67 Km\h
17/08/2014 Show to everybody lucca 17ago2014 84.93 Km 1145 m 03:49:22 22.22 Km\h
16/08/2014 Show to everybody lucca 16ago2014 72.51 Km 1007 m 03:04:29 23.58 Km\h
14/08/2014 Show to everybody lucca 14ago2014 56.67 Km 788 m 02:27:03 23.12 Km\h
11/08/2014 Show to everybody colli 11ago2014 88.35 Km 888 m 03:07:06 28.33 Km\h
07/08/2014 Show to everybody colli 7ago2014t 66.34 Km 645 m 02:50:54 23.29 Km\h
02/08/2014 Show to everybody giro lorenzago 2ago2014 74.28 Km 1649 m 03:21:33 22.11 Km\h
27/07/2014 Show to everybody colli 27lug2014 86.46 Km 677 m 03:19:31 26 Km\h
20/07/2014 Show to everybody colli 20lug2014 92.12 Km 630 m 03:15:13 28.31 Km\h
19/07/2014 Show to everybody colli 19lug2014 81.96 Km 912 m 03:16:32 25.02 Km\h
12/07/2014 Show to everybody colli 12lug2014 92.88 Km 937 m 03:49:52 24.24 Km\h
05/07/2014 Show to everybody colli 5lug2014 82.3 Km 1132 m 03:49:31 21.52 Km\h
02/07/2014 Show to everybody pontelongo2 lug2014 66.02 Km 251 m 02:14:26 29.47 Km\h
28/06/2014 Show to everybody colli 28giu2014 54.59 Km 434 m 02:05:09 26.17 Km\h
26/06/2014 Show to everybody bovolenta26giu2014 28.57 Km 65 m 01:07:38 25.35 Km\h
22/06/2014 Show to everybody torreglia 22giu2014 53.44 Km 314 m 02:00:27 26.62 Km\h
21/06/2014 Show to everybody bovolenta 21giu2014 51.93 Km 189 m 02:01:32 25.64 Km\h
18/06/2014 Show to everybody pontelongo 18giu2014 43.78 Km 174 m 01:58:11 22.23 Km\h
15/06/2014 Show to everybody bovolenta 15giu2014 27.48 Km 454 m 01:21:41 20.18 Km\h
14/06/2014 Show to everybody 1°giorno14giu2014 12.45 Km 105 m 00:34:20 21.76 Km\h
18/05/2014 Show to everybody colli 18mag2014 91.73 Km 968 m 03:40:44 24.94 Km\h
17/05/2014 Show to everybody colli 17mag2014 71.26 Km 778 m 03:10:09 22.49 Km\h
10/05/2014 Show to everybody colli 10mag2014 84.48 Km 1135 m 03:20:11 25.32 Km\h
04/05/2014 Show to everybody colli 4mag2014 84.66 Km 1354 m 03:52:49 21.82 Km\h
01/05/2014 Show to everybody berici 1mag2014 98.62 Km 1073 m 03:43:31 26.47 Km\h
25/04/2014 Show to everybody pedavena 25aqpr2014 94.17 Km 2270 m 04:46:59 19.69 Km\h
19/04/2014 Show to everybody colli 19apr2014 97.78 Km 655 m 03:35:31 27.22 Km\h
17/04/2014 Show to everybody giretto colli 17apr2014 56.11 Km 329 m 01:59:17 28.22 Km\h
13/04/2014 Show to everybody apertura societa 13apr2014 61.47 Km 252 m 02:47:44 21.99 Km\h
12/04/2014 Show to everybody colli 12apr2014 83.87 Km 968 m 03:31:03 23.84 Km\h
06/04/2014 Show to everybody colli 6apr2014 63.77 Km 864 m 02:53:49 22.01 Km\h
30/03/2014 Show to everybody colli 30mar2014 90.22 Km 1143 m 03:51:41 23.37 Km\h
29/03/2014 Show to everybody colli 29mar2014 87.45 Km 1282 m 03:43:29 23.48 Km\h
21/03/2014 Show to everybody colli 21mar2014 55.38 Km 476 m 02:13:57 24.81 Km\h
16/03/2014 Show to everybody colli 16mar204 87.25 Km 867 m 03:20:31 26.11 Km\h
15/03/2014 Show to everybody colli 15mar2014 88.93 Km 1341 m 04:03:22 21.92 Km\h
09/03/2014 Show to everybody colli_9mar2014 86.34 Km 1030 m 03:51:09 22.41 Km\h
08/03/2014 Show to everybody colli 8mar2014 88.91 Km 1015 m 03:38:23 24.43 Km\h
07/03/2014 Show to everybody pontelongo7mar2014 40.99 Km 121 m 01:33:05 26.42 Km\h
01/03/2014 Show to everybody colli 1mar2014 74.63 Km 866 m 03:11:20 23.4 Km\h
26/02/2014 Show to everybody giretto26feb2014 22.59 Km 88 m 00:56:58 23.79 Km\h
23/02/2014 Show to everybody 23feb2014 89.63 Km 743 m 03:31:15 25.46 Km\h
15/02/2014 Show to everybody colli 15feb2014 78.41 Km 901 m 03:35:09 21.87 Km\h
09/02/2014 Show to everybody giretto 9feb2014 58.23 Km 372 m 02:15:14 25.83 Km\h
02/02/2014 Show to everybody colli 2feb 2014 69.82 Km 616 m 02:45:52 25.26 Km\h
26/01/2014 Show to everybody colli 26gen2014 58.07 Km 481 m 02:22:18 24.49 Km\h
25/01/2014 Show to everybody colli 25gen2014 88.94 Km 822 m 03:33:49 24.96 Km\h
22/01/2014 Show to everybody colli 22gen2014 62.31 Km 533 m 02:19:22 26.83 Km\h
12/01/2014 Show to everybody colli 12dic2014 64.08 Km 478 m 02:31:36 25.36 Km\h
11/01/2014 Show to everybody colli 11gen2014 94.41 Km 747 m 03:34:13 26.44 Km\h
06/01/2014 Show to everybody giretto 6gen2014 116.75 Km 539 m 01:51:26 62.86 Km\h
06/01/2014 Show to everybody giretto 6gen2014 116.75 Km 539 m 01:51:26 62.86 Km\h
31/12/2013 Show to everybody colli 31dic2013 66.17 Km 476 m 02:26:46 27.05 Km\h
28/12/2013 Show to everybody colli 28dic2013 90.34 Km 789 m 03:26:09 26.29 Km\h
24/12/2013 Show to everybody colli 24dic2013 79.77 Km 600 m 03:07:43 25.5 Km\h
15/12/2013 Show to everybody giretto colli 15dic2013 62.85 Km 403 m 02:28:20 25.42 Km\h
11/12/2013 Show to everybody giretto11dic2013 25.04 Km 75 m 00:58:39 25.61 Km\h
08/12/2013 Show to everybody teolo 8dic2013 58.47 Km 381 m 02:06:10 27.81 Km\h
07/12/2013 Show to everybody giretto7dic2013 55.27 Km 193 m 02:06:21 26.25 Km\h
01/12/2013 Show to everybody colli 1dic2013 74.47 Km 941 m 03:04:50 24.17 Km\h
30/11/2013 Show to everybody colli 30nov2013 76.06 Km 720 m 03:03:58 24.81 Km\h
24/11/2013 Show to everybody colli 24nov2013 79.23 Km 783 m 02:56:49 26.88 Km\h
17/11/2013 Show to everybody colli 17nov2013 76.52 Km 865 m 02:59:37 25.56 Km\h
16/11/2013 Show to everybody colli16nov2013 94.27 Km 1037 m 03:29:11 27.04 Km\h
10/11/2013 Show to everybody colli 10nov2013 74.3 Km 948 m 03:00:36 24.68 Km\h
09/11/2013 Show to everybody fusina 9nov2013 77.05 Km 170 m 02:32:44 30.27 Km\h
06/11/2013 Show to everybody sgambata6nov2013 19.92 Km 26 m 00:45:44 26.14 Km\h
02/11/2013 Show to everybody colli 2nov2013 84.43 Km 359 m 02:44:17 30.83 Km\h
01/11/2013 Show to everybody colli 1nov2013 89.57 Km 1199 m 03:39:48 24.45 Km\h
30/10/2013 Show to everybody bovolenta 30ott2013 29.56 Km 72 m 01:00:03 29.53 Km\h
27/10/2013 Show to everybody colli 27ott2013 75.58 Km 689 m 03:09:03 23.99 Km\h
26/10/2013 Show to everybody colli 25ott2013 75.02 Km 823 m 03:19:54 22.52 Km\h
20/10/2013 Show to everybody colli 20ott2013 72.11 Km 897 m 03:15:43 22.11 Km\h
19/10/2013 Show to everybody colli19ott2013 55.63 Km 434 m 02:21:02 23.66 Km\h
16/10/2013 Show to everybody ponte_longo 43.24 Km 87 m 01:32:17 28.12 Km\h
12/10/2013 Show to everybody colli 12ott2013 69.43 Km 733 m 02:50:25 24.44 Km\h
11/10/2013 Show to everybody bovolenta 27.99 Km 23 m 01:00:10 27.92 Km\h
21/09/2013 Show to everybody villa santina rest 21sett2013 97.2 Km 4500 m 05:06:43 19.02 Km\h
15/09/2013 Show to everybody colli 15sett2013 80.54 Km 1005 m 03:27:34 23.28 Km\h
14/09/2013 Show to everybody colli14sett2013 100.81 Km 1218 m 04:25:04 22.82 Km\h
07/09/2013 Show to everybody colli 7sett2013 76.3 Km 639 m 02:08:30 35.63 Km\h
01/09/2013 Show to everybody colli 1sett2013 77.96 Km 1075 m 03:31:48 22.08 Km\h
31/08/2013 Show to everybody psso s.pellegrino 60.03 Km 2516 m 03:35:29 16.72 Km\h
31/08/2013 Show to everybody p.sso s.pellegrino 2 20.73 Km 27 m 00:32:45 37.98 Km\h
30/08/2013 Show to everybody giretto 30ago2013 27.36 Km 115 m 01:04:33 25.43 Km\h
21/08/2013 Show to everybody 4 passi 21ago2013 68.77 Km 2034 m 03:40:29 18.72 Km\h
18/08/2013 Show to everybody colli18ago2013 78.2 Km 1020 m 03:17:39 23.74 Km\h
10/08/2013 Show to everybody berici 10ago2013 125.3 Km 1161 m 04:52:10 25.73 Km\h
08/08/2013 Show to everybody vezzena 8ago2013 97.28 Km 2379 m 04:58:08 19.58 Km\h
07/08/2013 Show to everybody giretto colli7ago2013 52.08 Km 611 m 02:09:44 24.08 Km\h
28/07/2013 Show to everybody sgambata28lug2013 48.28 Km 410 m 01:54:41 25.26 Km\h
27/07/2013 Show to everybody stelvio 27lug2013 91.3 Km 2133 m 04:38:55 19.64 Km\h
20/07/2013 Show to everybody mte grappa da cismon20lug2013 94.92 Km 1886 m 04:07:34 23 Km\h
13/07/2013 Show to everybody continuazione_giro_berici 48.86 Km 330 m 01:47:23 27.3 Km\h
13/07/2013 Show to everybody errore_app__km_reali__106 6.97 Km 98 m 00:20:01 20.89 Km\h
10/07/2013 Show to everybody giretto 10lug2013 41.37 Km 227 m 01:30:59 27.28 Km\h
07/07/2013 Show to everybody colli 7lug2013 78.64 Km 1472 m 03:09:49 24.86 Km\h
06/07/2013 Show to everybody berici 6lug2013 120.23 Km 1355 m 04:41:09 25.66 Km\h
04/07/2013 Show to everybody colli 4lug2013 53.69 Km 603 m 02:03:55 26 Km\h
30/06/2013 Show to everybody errore_km_reali_75 6.74 Km 68 m 00:20:09 20.06 Km\h
29/06/2013 Show to everybody colli 29giu2013 101.46 Km 1221 m 03:58:46 25.5 Km\h
22/06/2013 Show to everybody vidor 22giu2013 63.78 Km 1165 m 02:34:39 24.75 Km\h
08/06/2013 Show to everybody colli 8giu2013 73.79 Km 712 m 02:56:16 25.12 Km\h
04/06/2013 Show to everybody giretto4giu2013 27.36 Km 170 m 00:59:11 27.74 Km\h
02/06/2013 Show to everybody colli 2giu2013 98.03 Km 1301 m 03:55:48 24.94 Km\h
01/06/2013 Show to everybody berici 1giu2013 105.03 Km 1199 m 04:07:38 25.45 Km\h
29/05/2013 Show to everybody colli 29mag2013 81.75 Km 893 m 03:12:16 25.51 Km\h
26/05/2013 Show to everybody colli 26mag2013 82.44 Km 1131 m 03:13:16 25.59 Km\h
25/05/2013 Show to everybody colli 25mag2013 84.44 Km 732 m 02:18:22 36.62 Km\h
22/05/2013 Show to everybody tappa giro berici 22mag2013 42.16 Km 299 m 01:31:28 27.66 Km\h
22/05/2013 Show to everybody tappa giro 22mag2013 53.96 Km 614 m 02:09:08 25.07 Km\h
18/05/2013 Show to everybody berici 18mag2013 129.01 Km 1698 m 05:02:26 25.59 Km\h
12/05/2013 Show to everybody colli 12mag2013 86.16 Km 986 m 03:26:56 24.98 Km\h
09/05/2013 Show to everybody colli9mag2013 50.96 Km 499 m 01:49:17 27.98 Km\h
05/05/2013 Show to everybody colli 5mag2013 33.38 Km 408 m 01:36:27 20.76 Km\h
04/05/2013 Show to everybody este 4mag2013 99.13 Km 1179 m 03:46:01 26.32 Km\h
01/05/2013 Show to everybody colli 1mag2013 86.4 Km 1440 m 03:46:51 22.85 Km\h
27/04/2013 Show to everybody albettone 27apr2013 78.02 Km 893 m 02:59:28 26.08 Km\h
25/04/2013 Show to everybody berici 25apr2013 104.36 Km 1197 m 04:00:37 26.02 Km\h
24/04/2013 Show to everybody colli 24apr2013 79.78 Km 1234 m 03:30:02 22.79 Km\h
18/04/2013 Show to everybody ponte l 18apr2013 41.34 Km 145 m 01:29:18 27.77 Km\h
14/04/2013 Show to everybody partapertura societa 2013 9.3 Km 96 m 00:26:16 21.25 Km\h
14/04/2013 Show to everybody apertura società 2013 32.22 Km 207 m 01:31:10 21.2 Km\h
13/04/2013 Show to everybody berici 13apr2013 58.23 Km 957 m 02:18:56 25.15 Km\h
07/04/2013 Show to everybody colli 7apr2013 66.41 Km 939 m 02:59:30 22.2 Km\h
06/04/2013 Show to everybody colli 6apr2013 87.62 Km 1395 m 03:53:19 22.53 Km\h
01/04/2013 Show to everybody colli 1apr2013 79.48 Km 1217 m 03:19:18 23.93 Km\h
23/03/2013 Show to everybody colli 23mar2013 67.48 Km 1009 m 02:51:15 23.64 Km\h
16/03/2013 Show to everybody colli 16mar2013 86.41 Km 1002 m 03:17:24 26.26 Km\h
09/03/2013 Show to everybody ponte l 9mar13 41.42 Km 377 m 01:33:47 26.5 Km\h
03/03/2013 Show to everybody colli 3 mar 2013 82.08 Km 1046 m 03:19:37 24.67 Km\h
02/03/2013 Show to everybody colli 2mar2013 75.25 Km 1369 m 03:18:40 22.73 Km\h
17/02/2013 Show to everybody colli 17feb13 63.54 Km 715 m 02:29:50 25.45 Km\h
16/02/2013 Show to everybody colli 16feb13 70.92 Km 824 m 02:52:27 24.68 Km\h
03/02/2013 Show to everybody giretto 3feb13 48.75 Km 274 m 01:52:42 25.95 Km\h
27/01/2013 Show to everybody colli 27gen13 66.14 Km 711 m 02:37:35 25.18 Km\h
26/01/2013 Show to everybody giro colli 26gen13 93.69 Km 1246 m 03:38:13 25.76 Km\h
19/01/2013 Show to everybody giro colli 19gen13 82.47 Km 932 m 03:26:42 23.94 Km\h
13/01/2013 Show to everybody giro colli 13gen13 68.14 Km 809 m 02:50:13 24.02 Km\h
12/01/2013 Show to everybody giro colli12gen13 errore 11.89 Km 63 m 00:18:09 39.32 Km\h
06/01/2013 Show to everybody colli 6gen13 65.94 Km 657 m 02:39:29 24.81 Km\h
31/12/2012 Show to everybody giretto 31 12 41.46 Km 242 m 01:32:53 26.78 Km\h
12/12/2012 Show to everybody giro pontelongo 12dic12 41.49 Km 322 m 01:30:32 27.49 Km\h
09/12/2012 Show to everybody giro colli 9 dic 2012 67.03 Km 1316 m 02:46:16 24.19 Km\h
01/12/2012 Show to everybody w20121201082354 70.64 Km 637 m 03:14:40 21.77 Km\h
25/11/2012 Show to everybody w20121125085805 70.96 Km 905 m 03:19:42 21.32 Km\h
24/11/2012 Show to everybody w20121124081340 77.72 Km 910 m 03:29:49 22.22 Km\h
22/11/2012 Show to everybody w20121122131947 41.4 Km 99 m 01:40:26 24.73 Km\h
18/11/2012 Show to everybody w20121118081926 74.39 Km 765 m 03:31:20 21.12 Km\h
17/11/2012 Show to everybody w20121117081527 97.89 Km 1074 m 03:49:28 25.6 Km\h
16/11/2012 Show to everybody w20121116103906 50.97 Km 309 m 01:55:20 26.52 Km\h
15/11/2012 Show to everybody w20121115142522 48.1 Km 90 m 01:50:35 26.1 Km\h
10/11/2012 Show to everybody w20121110082452 78.05 Km 1142 m 03:42:51 21.02 Km\h
07/11/2012 Show to everybody w20121107130443 53.95 Km 511 m 02:10:23 24.83 Km\h
03/11/2012 Show to everybody w20121103083459 82.68 Km 960 m 03:19:55 24.81 Km\h
25/10/2012 Show to everybody w20121025130132 58.01 Km 574 m 02:21:28 24.61 Km\h
21/10/2012 Show to everybody w20121021075820 99.4 Km 854 m 04:02:31 24.59 Km\h
20/10/2012 Show to everybody w20121020075808 80.9 Km 1072 m 03:29:31 23.17 Km\h
13/10/2012 Show to everybody w20121013141134 37.84 Km 229 m 01:37:14 23.35 Km\h
07/10/2012 Show to everybody w20121007075632 81.46 Km 741 m 03:45:10 21.71 Km\h
06/10/2012 Show to everybody w20121006075740 98.66 Km 1043 m 04:24:35 22.37 Km\h
30/09/2012 Show to everybody w20120930080307 66.46 Km 637 m 03:17:45 20.16 Km\h
29/09/2012 Show to everybody w20120929080854 71.18 Km 735 m 03:05:38 23.01 Km\h
23/09/2012 Show to everybody w20120923075810 79.06 Km 1243 m 03:51:21 20.51 Km\h
16/09/2012 Show to everybody w20120916073518 80.06 Km 865 m 03:34:19 22.41 Km\h
15/09/2012 Show to everybody w20120915073833 81.84 Km 1092 m 03:37:05 22.62 Km\h
09/09/2012 Show to everybody w20120909073115 88.59 Km 1067 m 03:50:06 23.1 Km\h
08/09/2012 Show to everybody w20120908073355 87.11 Km 884 m 03:38:30 23.92 Km\h
02/09/2012 Show to everybody w20120902073704 80.89 Km 1276 m 03:46:21 21.44 Km\h
01/09/2012 Show to everybody w20120901073249 96.1 Km 1607 m 04:58:25 19.32 Km\h
26/08/2012 Show to everybody Giretto Pontelongo 40.81 Km 40 m 01:25:57 28.49 Km\h
18/08/2012 Show to everybody Giro Crostis 124.61 Km 3660 m 07:29:16 16.64 Km\h
17/08/2012 Show to everybody giretto 44.8 Km 149 m 02:08:22 20.94 Km\h
14/08/2012 Show to everybody w20120814080819 40.13 Km 298 m 01:35:52 25.12 Km\h
12/08/2012 Show to everybody w20120812072550 79.15 Km 941 m 04:01:02 19.7 Km\h
11/08/2012 Show to everybody w20120811072950 105.84 Km 895 m 04:26:59 23.79 Km\h
09/08/2012 Show to everybody Menador 9 ago 2012 115.43 Km 1577 m 06:45:47 17.07 Km\h
05/08/2012 Show to everybody Allenamento 05-08-2012 alle 07:28:41.90 78.05 Km 908 m 03:48:45 20.47 Km\h
04/08/2012 Show to everybody giro lorenzago 68.37 Km 1589 m 04:02:06 16.94 Km\h
29/07/2012 Show to everybody w20120729073033 73.11 Km 749 m 03:31:33 20.74 Km\h
28/07/2012 Show to everybody Allenamento 28-07-2012 alle 07:26:53.85 84.27 Km 1004 m 03:40:43 22.91 Km\h
14/07/2012 Show to everybody giro colli euganei 100.39 Km 1023 m 04:22:31 22.94 Km\h
08/07/2012 Show to everybody w20120708073754 83.06 Km 796 m 03:36:58 22.97 Km\h
07/07/2012 Show to everybody w20120707073133 94.06 Km 1137 m 04:17:35 21.91 Km\h
24/06/2012 Show to everybody w20120624073446 74.62 Km 1025 m 03:37:24 20.59 Km\h
23/06/2012 Show to everybody w20120623063218 122.45 Km 1747 m 05:31:19 22.18 Km\h
21/06/2012 Show to everybody giro colli 52.36 Km 372 m 02:22:25 22.06 Km\h
17/06/2012 Show to everybody w20120617073507 70.75 Km 725 m 03:18:38 21.37 Km\h
16/06/2012 Show to everybody giro cansiglio 16giu2012 83.41 Km 1926 m 04:41:05 17.8 Km\h
14/06/2012 Show to everybody w20120614140356 60.67 Km 535 m 02:19:17 26.14 Km\h
09/06/2012 Show to everybody giro colli euganei 87.48 Km 783 m 03:38:42 24 Km\h
07/06/2012 Show to everybody giretto 17.38 Km 94 m 00:40:25 25.8 Km\h
03/06/2012 Show to everybody giro colli euganei 78.52 Km 975 m 03:46:03 20.84 Km\h
02/06/2012 Show to everybody giro colli 87.41 Km 937 m 03:33:51 24.53 Km\h
30/05/2012 Show to everybody w20120530173436 50.09 Km 89 m 01:51:28 26.96 Km\h
27/05/2012 Show to everybody w20120527073952 48.18 Km 724 m 02:21:30 20.43 Km\h
24/05/2012 Show to everybody w20120524165653 46.66 Km 161 m 01:56:31 24.03 Km\h
24/05/2012 Show to everybody w20120524130607 36.72 Km 191 m 01:33:18 23.61 Km\h
20/05/2012 Show to everybody w20120520073452 96.08 Km 825 m 03:56:54 24.33 Km\h
19/05/2012 Show to everybody w20120519073201 76.6 Km 1257 m 03:48:22 20.13 Km\h
17/05/2012 Show to everybody w20120517172621 43.07 Km 88 m 01:37:25 26.53 Km\h
14/05/2012 Show to everybody w20120514171432 41.29 Km 169 m 01:37:49 25.33 Km\h
12/05/2012 Show to everybody w20120512073040 135.99 Km 1508 m 05:13:37 26.02 Km\h
11/05/2012 Show to everybody w20120511173312 46.27 Km 122 m 01:42:53 26.98 Km\h
08/05/2012 Show to everybody w20120508174950 29.61 Km 92 m 01:10:49 25.09 Km\h
05/05/2012 Show to everybody w20120505083546 34.21 Km 650 m 01:50:42 18.54 Km\h
01/05/2012 Show to everybody w20120501085043 15.95 Km 158 m 00:37:25 25.58 Km\h
29/04/2012 Show to everybody w20120429080317 84.91 Km 1045 m 03:45:15 22.62 Km\h
28/04/2012 Show to everybody w20120428080122 98.94 Km 984 m 04:10:06 23.74 Km\h
25/04/2012 Show to everybody w20120425075925 90.7 Km 1097 m 04:09:08 21.84 Km\h
21/04/2012 Show to everybody w20120421080102 101.88 Km 1498 m 04:28:16 22.79 Km\h
17/04/2012 Show to everybody w20120417191445 21.21 Km 67 m 00:52:58 24.03 Km\h
14/04/2012 Show to everybody w20120414080220 79.93 Km 1537 m 03:56:23 20.29 Km\h
09/04/2012 Show to everybody w20120409080422 110.15 Km 1103 m 04:24:07 25.02 Km\h
07/04/2012 Show to everybody w20120407080046 100.89 Km 1188 m 04:05:15 24.68 Km\h
01/04/2012 Show to everybody w20120401075840 66.13 Km 871 m 03:19:44 19.86 Km\h
31/03/2012 Show to everybody w20120331075513 90.76 Km 1407 m 04:08:44 21.89 Km\h
25/03/2012 Show to everybody w20120325075538 76.15 Km 885 m 03:27:50 21.98 Km\h
24/03/2012 Show to everybody giro colli 104.04 Km 1591 m 04:45:56 21.83 Km\h
22/03/2012 Show to everybody w20120322150802 42.68 Km 88 m 01:37:30 26.27 Km\h
16/03/2012 Show to everybody w20120316102327 26.91 Km 40 m 01:03:16 25.52 Km\h
15/03/2012 Show to everybody w20120315134221 52.09 Km 317 m 02:05:02 25 Km\h
14/03/2012 Show to everybody w20120314140058 26.49 Km 48 m 01:04:58 24.46 Km\h
11/03/2012 Show to everybody w20120311075952 76.31 Km 921 m 03:17:36 23.17 Km\h
10/03/2012 Show to everybody w20120310075222 103.42 Km 1190 m 04:18:41 23.99 Km\h
04/03/2012 Show to everybody w20120304080518 73.52 Km 824 m 03:20:19 22.02 Km\h
03/03/2012 Show to everybody w20120303075852 101.08 Km 1436 m 04:21:41 23.18 Km\h
26/02/2012 Show to everybody w20120226082238 85.78 Km 858 m 03:43:58 22.98 Km\h
25/02/2012 Show to everybody w20120225082404 99.62 Km 799 m 03:46:34 26.38 Km\h
19/02/2012 Show to everybody w20120219081024 89.47 Km 354 m 03:49:56 23.35 Km\h
18/02/2012 Show to everybody w20120218124411 81.73 Km 723 m 03:21:53 24.29 Km\h
29/01/2012 Show to everybody w20120129082000 73.34 Km 963 m 03:23:02 21.67 Km\h
28/01/2012 Show to everybody w20120128081337 93.85 Km 766 m 03:51:54 24.28 Km\h
22/01/2012 Show to everybody w20120122082052 66.95 Km 779 m 03:06:13 21.57 Km\h
21/01/2012 Show to everybody w20120121082012 75.55 Km 793 m 03:21:05 22.54 Km\h
15/01/2012 Show to everybody w20120115082008 73.4 Km 777 m 03:10:37 23.1 Km\h
14/01/2012 Show to everybody w20120114081642 92.32 Km 922 m 03:53:58 23.67 Km\h
08/01/2012 Show to everybody w20120108085518 67.78 Km 553 m 02:34:40 26.3 Km\h
31/12/2011 Show to everybody w20111231083600 72.67 Km 898 m 03:08:43 23.11 Km\h
28/12/2011 Show to everybody w20111228130519 65.22 Km 589 m 02:33:04 25.56 Km\h
26/12/2011 Show to everybody w20111226082142 71.58 Km 747 m 03:25:45 20.87 Km\h
24/12/2011 Show to everybody w20111224082750 19.86 Km 129 m 01:08:05 17.5 Km\h
18/12/2011 Show to everybody w20111218082036 72.69 Km 874 m 03:36:32 20.14 Km\h
17/12/2011 Show to everybody w20111217082535 78.21 Km 802 m 03:23:56 23.01 Km\h
10/12/2011 Show to everybody w20111210083559 72.23 Km 912 m 03:05:57 23.31 Km\h
08/12/2011 Show to everybody w20111208082822 79.24 Km 676 m 03:19:04 23.88 Km\h
26/11/2011 Show to everybody w20111126082948 88.95 Km 1172 m 04:09:52 21.36 Km\h
19/11/2011 Show to everybody w20111119083329 72.44 Km 1044 m 03:33:09 20.39 Km\h
13/11/2011 Show to everybody w20111113082003 76.94 Km 918 m 03:38:07 21.17 Km\h
12/11/2011 Show to everybody w20111112082133 95.8 Km 824 m 04:02:10 23.74 Km\h
30/10/2011 Show to everybody w20111030082835 74.15 Km 875 m 03:15:51 22.72 Km\h
29/10/2011 Show to everybody w20111029082520 92.03 Km 850 m 03:39:37 25.14 Km\h
22/10/2011 Show to everybody w20111022080102 87.91 Km 818 m 03:36:44 24.34 Km\h
16/10/2011 Show to everybody w20111016080052 79.7 Km 944 m 03:37:52 21.95 Km\h
15/10/2011 Show to everybody w20111015080435 90.83 Km 1296 m 03:49:44 23.72 Km\h
08/10/2011 Show to everybody w20111008075402 84.8 Km 1335 m 03:55:23 21.62 Km\h
02/10/2011 Show to everybody w20111002080054 7.28 Km 42 m 00:24:20 17.96 Km\h
01/10/2011 Show to everybody w20111001080239 73.69 Km 636 m 02:58:24 24.78 Km\h
25/09/2011 Show to everybody w20110925075546 83.09 Km 866 m 03:45:47 22.08 Km\h
24/09/2011 Show to everybody w20110924074545 103.62 Km 1331 m 04:12:25 24.63 Km\h
17/09/2011 Show to everybody w20110917072612 85.03 Km 789 m 03:58:54 21.36 Km\h
10/09/2011 Show to everybody w20110910072105 65.99 Km 1056 m 03:02:00 21.75 Km\h
04/09/2011 Show to everybody w20110904072001 77.74 Km 1003 m 03:58:04 19.59 Km\h
03/09/2011 Show to everybody w20110903072814 89.07 Km 970 m 03:55:48 22.66 Km\h
28/08/2011 Show to everybody w20110828073127 84.68 Km 581 m 03:30:15 24.17 Km\h
21/08/2011 Show to everybody w20110821101031 29.06 Km 117 m 01:25:04 20.5 Km\h
20/08/2011 Show to everybody w20110820072443 73.8 Km 710 m 03:25:56 21.5 Km\h
19/08/2011 Show to everybody w20110819093151 59.24 Km 418 m 02:31:43 23.43 Km\h
18/08/2011 Show to everybody w20110818112700 27.48 Km 81 m 01:08:06 24.21 Km\h
13/08/2011 Show to everybody w20110813102205 47.43 Km 94 m 01:47:27 26.48 Km\h
10/08/2011 Show to everybody w20110810095141 30.57 Km 120 m 01:36:14 19.06 Km\h
06/08/2011 Show to everybody w20110806072301 97.66 Km 1110 m 03:49:50 25.49 Km\h
30/07/2011 Show to everybody w20110730084121 39.11 Km 579 m 02:06:08 18.6 Km\h
16/07/2011 Show to everybody w20110716073337 95.44 Km 1293 m 03:49:34 24.94 Km\h
10/07/2011 Show to everybody w20110710073300 81.31 Km 968 m 03:47:42 21.43 Km\h
09/07/2011 Show to everybody w20110709072930 99.61 Km 1053 m 04:02:59 24.6 Km\h
03/07/2011 Show to everybody w20110703075202 65.01 Km 250 m 02:38:11 24.66 Km\h
02/07/2011 Show to everybody w20110702081028 63.26 Km 360 m 02:38:34 23.94 Km\h
25/06/2011 Show to everybody w20110625083308 48.64 Km 106 m 02:09:39 22.51 Km\h
18/06/2011 Show to everybody w20110618082648 71.83 Km 2109 m 03:47:48 18.92 Km\h
05/06/2011 Show to everybody w20110605073505 71.76 Km 698 m 02:53:29 24.82 Km\h
14/05/2011 Show to everybody w2011051407319 106.14 Km 1400 m 04:21:29 24.35 Km\h
07/05/2011 Show to everybody w20110507072236 111.63 Km 1286 m 04:43:10 23.65 Km\h
30/04/2011 Show to everybody w20110430073020 100.32 Km 1775 m 04:10:30 24.03 Km\h
25/04/2011 Show to everybody w20110425072546 77.65 Km 703 m 03:22:34 23 Km\h
23/04/2011 Show to everybody w20110423073740 108.97 Km 2286 m 04:33:39 23.89 Km\h
22/04/2011 Show to everybody w20110422151018 74.4 Km 773 m 02:52:50 25.83 Km\h
17/04/2011 Show to everybody w20110417073132 76.1 Km 914 m 03:37:55 20.95 Km\h
16/04/2011 Show to everybody w20110416073612 108.04 Km 1115 m 04:22:18 24.71 Km\h
10/04/2011 Show to everybody w20110410080034 61.55 Km 273 m 02:48:49 21.88 Km\h
09/04/2011 Show to everybody w20110409072921 122.63 Km 1001 m 04:40:52 26.2 Km\h
03/04/2011 Show to everybody w20110403073754 83.23 Km 1268 m 03:34:57 23.23 Km\h
02/04/2011 Show to everybody w20110402080353 80.86 Km 938 m 03:13:53 25.02 Km\h
20/11/2010 Show to everybody w20101120082815 83.97 Km 1188 m 03:31:46 23.79 Km\h
14/11/2010 Show to everybody w20101114084602 47.87 Km 139 m 01:43:31 27.74 Km\h
13/11/2010 Show to everybody w20101113081135 79.62 Km 1009 m 03:31:58 22.54 Km\h
11/11/2010 Show to everybody w20101111152338 29.26 Km 79 m 01:08:37 25.59 Km\h

Show previous years trainings
This user's bikes.

653 points
Kilometers
0
Vertical gain
0
Rank:27

Watch ranking »

 

Bike name

Delete this bike?

Now you follow this users and you can compare your trainings

If you stop following this users you will not be able to compare your trainings with his


bdc-forum.it | 2012-2019 Training Camp v.1.0.15